createdAt,value
2022-12-15T00:00:02.927Z,24.60
2022-12-15T00:01:03.031Z,22.10
2022-12-15T00:02:03.040Z,22.30
2022-12-15T00:03:03.006Z,24.20
2022-12-15T00:04:02.880Z,27.70
2022-12-15T00:05:02.768Z,22.10
2022-12-15T00:06:02.740Z,21.50
2022-12-15T00:07:02.757Z,26.00
2022-12-15T00:08:02.677Z,24.80
2022-12-15T00:09:02.640Z,23.00
2022-12-15T00:10:02.611Z,24.80
2022-12-15T00:11:02.576Z,23.30
2022-12-15T00:12:02.551Z,22.40
2022-12-15T00:13:02.513Z,23.20
2022-12-15T00:14:02.488Z,23.00
2022-12-15T00:15:02.451Z,23.30
2022-12-15T00:16:02.506Z,25.70
2022-12-15T00:17:02.410Z,23.40
2022-12-15T00:18:02.358Z,22.90
2022-12-15T00:19:02.363Z,20.30
2022-12-15T00:20:02.301Z,22.00
2022-12-15T00:21:02.259Z,21.10
2022-12-15T00:22:02.233Z,23.40
2022-12-15T00:23:02.200Z,27.00
2022-12-15T00:24:02.178Z,24.60
2022-12-15T00:25:02.136Z,21.90
2022-12-15T00:26:02.109Z,25.00
2022-12-15T00:27:02.074Z,21.90
2022-12-15T00:28:02.051Z,23.90
2022-12-15T00:29:02.016Z,22.70
2022-12-15T00:30:01.985Z,25.10
2022-12-15T00:31:02.688Z,23.60
2022-12-15T00:32:01.982Z,23.50
2022-12-15T00:33:01.914Z,25.50
2022-12-15T00:34:01.863Z,25.00
2022-12-15T00:35:01.822Z,23.70
2022-12-15T00:36:01.798Z,26.40
2022-12-15T00:37:01.763Z,22.10
2022-12-15T00:38:01.731Z,23.80
2022-12-15T00:39:03.936Z,23.20
2022-12-15T00:40:01.676Z,24.90
2022-12-15T00:41:01.640Z,23.10
2022-12-15T00:42:01.607Z,23.90
2022-12-15T00:43:01.573Z,24.80
2022-12-15T00:44:01.547Z,22.50
2022-12-15T00:45:01.523Z,23.60
2022-12-15T00:46:01.529Z,23.40
2022-12-15T00:47:01.506Z,23.00
2022-12-15T00:48:01.423Z,25.70
2022-12-15T00:49:01.417Z,22.40
2022-12-15T00:50:01.354Z,26.50
2022-12-15T00:51:01.323Z,23.50
2022-12-15T00:52:01.298Z,24.20
2022-12-15T00:53:01.262Z,22.10
2022-12-15T00:54:01.232Z,22.50
2022-12-15T00:55:01.206Z,21.70
2022-12-15T00:56:01.175Z,24.30
2022-12-15T00:57:01.133Z,23.80
2022-12-15T00:58:01.104Z,23.50
2022-12-15T00:59:01.073Z,23.40
2022-12-15T01:00:01.051Z,23.90
2022-12-15T01:01:01.008Z,23.00
2022-12-15T01:02:01.119Z,22.80
2022-12-15T01:03:01.173Z,23.80
2022-12-15T01:04:00.955Z,22.40
2022-12-15T01:05:00.911Z,21.00
2022-12-15T01:06:00.856Z,23.90
2022-12-15T01:07:00.825Z,22.10
2022-12-15T01:08:00.791Z,21.10
2022-12-15T01:09:00.764Z,23.50
2022-12-15T01:10:00.730Z,23.60
2022-12-15T01:11:00.698Z,21.20
2022-12-15T01:12:00.667Z,23.50
2022-12-15T01:13:00.641Z,22.00
2022-12-15T01:14:00.609Z,20.40
2022-12-15T01:15:00.587Z,22.70
2022-12-15T01:16:00.600Z,21.90
2022-12-15T01:17:00.508Z,23.60
2022-12-15T01:18:00.482Z,24.10
2022-12-15T01:19:00.451Z,21.40
2022-12-15T01:20:00.420Z,21.60
2022-12-15T01:21:00.403Z,22.50
2022-12-15T01:22:00.362Z,23.00
2022-12-15T01:23:00.322Z,21.90
2022-12-15T01:24:00.291Z,21.80
2022-12-15T01:25:00.268Z,21.30
2022-12-15T01:26:00.227Z,21.40
2022-12-15T01:27:00.196Z,22.10
2022-12-15T01:28:00.175Z,23.00
2022-12-15T01:29:00.130Z,21.60
2022-12-15T01:30:00.101Z,22.00
2022-12-15T01:31:00.162Z,23.90
2022-12-15T01:32:00.118Z,23.80
2022-12-15T01:33:00.008Z,23.20
2022-12-15T01:33:59.982Z,25.60
2022-12-15T01:34:59.943Z,23.10
2022-12-15T01:35:59.925Z,21.10
2022-12-15T01:37:00.010Z,22.90
2022-12-15T01:37:59.855Z,24.10
2022-12-15T01:38:59.823Z,21.60
2022-12-15T01:39:59.795Z,21.60
2022-12-15T01:40:59.759Z,22.80
2022-12-15T01:41:59.728Z,21.70
2022-12-15T01:42:59.700Z,22.30
2022-12-15T01:43:59.667Z,25.10
2022-12-15T01:44:59.633Z,22.30
2022-12-15T01:45:59.604Z,20.60
2022-12-15T01:46:59.677Z,21.30
2022-12-15T01:47:59.545Z,22.70
2022-12-15T01:48:59.512Z,24.00
2022-12-15T01:49:59.484Z,22.50
2022-12-15T01:50:59.441Z,22.90
2022-12-15T01:51:59.423Z,22.70
2022-12-15T01:52:59.404Z,20.60
2022-12-15T01:53:59.355Z,20.60
2022-12-15T01:54:59.315Z,23.20
2022-12-15T01:55:59.290Z,22.90
2022-12-15T01:56:59.261Z,20.90
2022-12-15T01:57:59.227Z,19.60
2022-12-15T01:58:59.194Z,22.40
2022-12-15T01:59:59.169Z,23.80
2022-12-15T02:00:59.198Z,24.10
2022-12-15T02:01:59.307Z,22.50
2022-12-15T02:02:59.287Z,19.90
2022-12-15T02:03:59.036Z,21.60
2022-12-15T02:04:59.009Z,24.30
2022-12-15T02:05:58.976Z,22.30
2022-12-15T02:06:58.944Z,20.60
2022-12-15T02:07:58.922Z,22.60
2022-12-15T02:08:59.126Z,21.90
2022-12-15T02:09:58.868Z,22.70
2022-12-15T02:10:58.819Z,21.10
2022-12-15T02:11:58.813Z,23.00
2022-12-15T02:12:58.760Z,22.20
2022-12-15T02:13:58.728Z,25.00
2022-12-15T02:14:58.696Z,20.90
2022-12-15T02:15:58.723Z,21.60
2022-12-15T02:16:58.632Z,24.10
2022-12-15T02:17:58.599Z,21.70
2022-12-15T02:18:58.565Z,22.20
2022-12-15T02:19:58.540Z,22.20
2022-12-15T02:20:58.505Z,21.20
2022-12-15T02:21:58.478Z,20.00
2022-12-15T02:22:58.442Z,21.50
2022-12-15T02:23:58.417Z,23.00
2022-12-15T02:24:58.408Z,19.80
2022-12-15T02:25:58.352Z,20.80
2022-12-15T02:26:58.319Z,22.10
2022-12-15T02:27:58.290Z,21.50
2022-12-15T02:28:58.254Z,21.50
2022-12-15T02:29:58.248Z,20.80
2022-12-15T02:30:58.190Z,21.20
2022-12-15T02:31:58.283Z,19.60
2022-12-15T02:32:58.125Z,21.10
2022-12-15T02:33:58.100Z,21.90
2022-12-15T02:34:58.065Z,21.90
2022-12-15T02:35:58.041Z,21.30
2022-12-15T02:36:58.004Z,21.30
2022-12-15T02:37:57.976Z,23.10
2022-12-15T02:38:57.940Z,20.50
2022-12-15T02:39:57.916Z,23.90
2022-12-15T02:40:57.901Z,22.70
2022-12-15T02:41:57.861Z,22.10
2022-12-15T02:42:57.814Z,23.10
2022-12-15T02:43:57.790Z,23.40
2022-12-15T02:44:57.755Z,23.00
2022-12-15T02:45:57.823Z,24.00
2022-12-15T02:46:57.687Z,22.90
2022-12-15T02:47:57.656Z,21.60
2022-12-15T02:48:57.627Z,22.90
2022-12-15T02:49:57.796Z,21.10
2022-12-15T02:50:57.566Z,20.90
2022-12-15T02:51:57.531Z,24.10
2022-12-15T02:52:57.507Z,21.00
2022-12-15T02:53:57.475Z,21.60
2022-12-15T02:54:57.445Z,21.90
2022-12-15T02:55:57.403Z,22.70
2022-12-15T02:56:57.413Z,23.40
2022-12-15T02:57:57.341Z,23.90
2022-12-15T02:58:57.319Z,22.00
2022-12-15T02:59:57.289Z,21.80
2022-12-15T03:00:57.347Z,22.30
2022-12-15T03:01:57.446Z,23.30
2022-12-15T03:02:57.312Z,22.10
2022-12-15T03:03:57.156Z,21.10
2022-12-15T03:04:57.131Z,22.30
2022-12-15T03:05:57.092Z,22.60
2022-12-15T03:07:00.829Z,22.20
2022-12-15T03:07:57.047Z,21.20
2022-12-15T03:08:57.004Z,21.10
2022-12-15T03:09:56.970Z,25.90
2022-12-15T03:10:56.942Z,22.90
2022-12-15T03:11:56.909Z,21.10
2022-12-15T03:12:56.902Z,21.60
2022-12-15T03:13:56.845Z,23.10
2022-12-15T03:14:56.815Z,23.80
2022-12-15T03:15:56.787Z,21.70
2022-12-15T03:16:56.837Z,21.20
2022-12-15T03:17:56.718Z,21.30
2022-12-15T03:18:56.693Z,24.20
2022-12-15T03:19:56.652Z,25.30
2022-12-15T03:20:56.630Z,23.20
2022-12-15T03:21:56.589Z,22.30
2022-12-15T03:22:56.562Z,21.90
2022-12-15T03:23:56.529Z,22.60
2022-12-15T03:24:56.498Z,23.40
2022-12-15T03:25:56.465Z,21.00
2022-12-15T03:26:56.435Z,22.20
2022-12-15T03:27:56.409Z,22.10
2022-12-15T03:28:56.402Z,22.30
2022-12-15T03:29:56.341Z,21.60
2022-12-15T03:30:56.320Z,22.20
2022-12-15T03:31:56.368Z,24.20
2022-12-15T03:32:56.249Z,23.20
2022-12-15T03:33:56.210Z,21.40
2022-12-15T03:34:56.185Z,23.00
2022-12-15T03:35:56.149Z,21.20
2022-12-15T03:36:56.124Z,24.80
2022-12-15T03:37:56.088Z,20.80
2022-12-15T03:38:56.060Z,22.70
2022-12-15T03:39:56.029Z,23.20
2022-12-15T03:40:55.996Z,22.20
2022-12-15T03:41:55.964Z,23.70
2022-12-15T03:42:55.938Z,23.10
2022-12-15T03:43:55.901Z,26.10
2022-12-15T03:44:55.896Z,26.40
2022-12-15T03:45:55.974Z,21.70
2022-12-15T03:47:01.291Z,23.90
2022-12-15T03:47:55.778Z,22.90
2022-12-15T03:48:55.750Z,25.30
2022-12-15T03:49:55.709Z,23.40
2022-12-15T03:50:55.682Z,25.60
2022-12-15T03:51:55.647Z,23.70
2022-12-15T03:52:55.629Z,21.40
2022-12-15T03:53:55.583Z,23.50
2022-12-15T03:54:55.557Z,23.00
2022-12-15T03:55:55.521Z,25.20
2022-12-15T03:56:55.499Z,24.00
2022-12-15T03:57:55.463Z,23.20
2022-12-15T03:58:55.435Z,22.60
2022-12-15T03:59:55.405Z,27.50
2022-12-15T04:00:55.485Z,23.00
2022-12-15T04:01:55.493Z,23.60
2022-12-15T04:02:55.385Z,24.70
2022-12-15T04:04:00.228Z,23.60
2022-12-15T04:04:55.242Z,25.10
2022-12-15T04:05:55.209Z,23.50
2022-12-15T04:06:55.180Z,21.90
2022-12-15T04:07:55.146Z,22.30
2022-12-15T04:08:55.117Z,22.80
2022-12-15T04:09:55.086Z,23.60
2022-12-15T04:10:55.057Z,21.70
2022-12-15T04:11:55.063Z,24.60
2022-12-15T04:12:54.992Z,26.10
2022-12-15T04:13:54.956Z,24.20
2022-12-15T04:14:54.927Z,25.50
2022-12-15T04:15:54.896Z,25.50
2022-12-15T04:16:55.073Z,24.20
2022-12-15T04:17:54.837Z,25.50
2022-12-15T04:18:54.809Z,25.30
2022-12-15T04:19:54.772Z,23.80
2022-12-15T04:20:54.745Z,24.60
2022-12-15T04:21:54.709Z,23.70
2022-12-15T04:22:54.687Z,23.20
2022-12-15T04:23:54.644Z,24.90
2022-12-15T04:24:54.615Z,21.90
2022-12-15T04:25:54.584Z,22.70
2022-12-15T04:26:54.552Z,24.40
2022-12-15T04:27:59.846Z,24.90
2022-12-15T04:28:54.493Z,23.60
2022-12-15T04:29:54.456Z,22.40
2022-12-15T04:30:54.450Z,23.50
2022-12-15T04:31:54.392Z,25.80
2022-12-15T04:32:54.389Z,24.60
2022-12-15T04:33:54.327Z,23.60
2022-12-15T04:34:54.301Z,23.80
2022-12-15T04:35:54.267Z,26.20
2022-12-15T04:36:54.237Z,24.00
2022-12-15T04:37:54.202Z,24.00
2022-12-15T04:38:54.174Z,25.00
2022-12-15T04:39:54.142Z,24.70
2022-12-15T04:40:54.113Z,25.70
2022-12-15T04:41:54.080Z,25.20
2022-12-15T04:42:54.051Z,23.50
2022-12-15T04:43:54.015Z,24.80
2022-12-15T04:44:53.986Z,24.40
2022-12-15T04:45:54.018Z,22.80
2022-12-15T04:46:53.931Z,23.40
2022-12-15T04:47:53.896Z,24.00
2022-12-15T04:48:53.881Z,26.00
2022-12-15T04:49:53.831Z,23.30
2022-12-15T04:50:53.800Z,25.90
2022-12-15T04:51:53.765Z,25.40
2022-12-15T04:52:53.738Z,26.80
2022-12-15T04:53:53.702Z,25.60
2022-12-15T04:54:53.671Z,30.10
2022-12-15T04:55:53.641Z,26.10
2022-12-15T04:56:53.612Z,25.30
2022-12-15T04:57:53.578Z,28.50
2022-12-15T04:58:53.550Z,24.30
2022-12-15T04:59:53.514Z,27.10
2022-12-15T05:00:53.482Z,24.30
2022-12-15T05:01:53.761Z,28.00
2022-12-15T05:02:53.419Z,25.20
2022-12-15T05:03:53.499Z,24.70
2022-12-15T05:04:53.471Z,26.60
2022-12-15T05:05:53.327Z,25.90
2022-12-15T05:06:53.295Z,26.10
2022-12-15T05:07:53.259Z,26.00
2022-12-15T05:08:53.233Z,23.30
2022-12-15T05:09:53.201Z,23.70
2022-12-15T05:10:53.171Z,24.00
2022-12-15T05:11:53.131Z,25.60
2022-12-15T05:12:53.106Z,24.50
2022-12-15T05:13:53.070Z,25.60
2022-12-15T05:14:53.039Z,25.50
2022-12-15T05:15:53.062Z,26.20
2022-12-15T05:16:53.016Z,22.30
2022-12-15T05:17:52.956Z,27.80
2022-12-15T05:18:52.917Z,25.50
2022-12-15T05:19:52.879Z,26.20
2022-12-15T05:20:52.877Z,27.80
2022-12-15T05:21:52.814Z,24.30
2022-12-15T05:22:52.792Z,26.40
2022-12-15T05:23:52.754Z,26.80
2022-12-15T05:24:52.728Z,24.30
2022-12-15T05:25:52.691Z,25.90
2022-12-15T05:26:53.476Z,25.50
2022-12-15T05:27:52.630Z,25.70
2022-12-15T05:28:52.599Z,26.10
2022-12-15T05:29:52.561Z,24.40
2022-12-15T05:30:52.576Z,26.20
2022-12-15T05:31:52.505Z,26.60
2022-12-15T05:32:52.475Z,27.20
2022-12-15T05:33:52.443Z,27.20
2022-12-15T05:34:52.410Z,26.40
2022-12-15T05:35:52.377Z,26.40
2022-12-15T05:36:52.370Z,24.20
2022-12-15T05:37:52.317Z,28.20
2022-12-15T05:38:52.284Z,25.40
2022-12-15T05:39:52.252Z,26.20
2022-12-15T05:40:52.220Z,26.60
2022-12-15T05:41:52.190Z,26.80
2022-12-15T05:42:52.158Z,26.50
2022-12-15T05:43:52.124Z,26.80
2022-12-15T05:44:52.096Z,26.40
2022-12-15T05:45:52.094Z,28.40
2022-12-15T05:46:52.152Z,26.40
2022-12-15T05:47:51.999Z,25.60
2022-12-15T05:48:51.971Z,27.30
2022-12-15T05:49:51.942Z,25.70
2022-12-15T05:50:51.905Z,26.50
2022-12-15T05:51:51.876Z,26.50
2022-12-15T05:52:51.874Z,28.10
2022-12-15T05:53:51.813Z,26.30
2022-12-15T05:54:51.784Z,25.40
2022-12-15T05:55:51.745Z,26.50
2022-12-15T05:56:51.722Z,25.90
2022-12-15T05:57:51.680Z,27.60
2022-12-15T05:58:51.656Z,26.80
2022-12-15T05:59:51.624Z,25.30
2022-12-15T06:00:51.594Z,28.90
2022-12-15T06:01:51.700Z,27.30
2022-12-15T06:02:51.631Z,28.10
2022-12-15T06:03:51.496Z,29.80
2022-12-15T06:04:51.523Z,28.40
2022-12-15T06:05:56.334Z,27.10
2022-12-15T06:06:51.402Z,27.20
2022-12-15T06:07:51.366Z,29.60
2022-12-15T06:08:51.362Z,26.10
2022-12-15T06:09:51.305Z,25.40
2022-12-15T06:10:51.280Z,28.80
2022-12-15T06:11:51.241Z,27.70
2022-12-15T06:12:51.209Z,25.80
2022-12-15T06:13:51.177Z,27.10
2022-12-15T06:14:51.149Z,30.80
2022-12-15T06:15:51.146Z,29.00
2022-12-15T06:16:51.757Z,28.70
2022-12-15T06:17:51.055Z,28.10
2022-12-15T06:18:51.021Z,24.30
2022-12-15T06:19:50.993Z,25.10
2022-12-15T06:20:50.960Z,27.90
2022-12-15T06:21:50.928Z,30.00
2022-12-15T06:22:50.894Z,28.60
2022-12-15T06:23:50.864Z,26.90
2022-12-15T06:24:50.861Z,30.60
2022-12-15T06:25:50.801Z,26.10
2022-12-15T06:26:50.766Z,27.40
2022-12-15T06:27:50.740Z,26.80
2022-12-15T06:28:50.708Z,26.30
2022-12-15T06:29:50.670Z,25.40
2022-12-15T06:30:50.642Z,26.60
2022-12-15T06:31:50.665Z,29.00
2022-12-15T06:32:50.578Z,26.40
2022-12-15T06:33:52.491Z,27.50
2022-12-15T06:34:50.521Z,29.90
2022-12-15T06:35:50.486Z,28.00
2022-12-15T06:36:50.480Z,27.40
2022-12-15T06:37:50.416Z,28.00
2022-12-15T06:38:50.392Z,28.30
2022-12-15T06:39:50.356Z,25.60
2022-12-15T06:40:50.350Z,30.20
2022-12-15T06:41:50.291Z,31.10
2022-12-15T06:42:50.265Z,27.40
2022-12-15T06:43:50.237Z,29.50
2022-12-15T06:44:50.207Z,25.70
2022-12-15T06:45:50.174Z,28.50
2022-12-15T06:46:50.227Z,29.40
2022-12-15T06:47:50.105Z,30.50
2022-12-15T06:48:50.078Z,26.40
2022-12-15T06:49:50.042Z,25.50
2022-12-15T06:50:50.317Z,28.60
2022-12-15T06:51:49.984Z,27.80
2022-12-15T06:52:49.955Z,26.60
2022-12-15T06:53:49.944Z,26.00
2022-12-15T06:54:49.882Z,26.70
2022-12-15T06:55:49.850Z,29.00
2022-12-15T06:56:50.217Z,24.90
2022-12-15T06:57:49.787Z,30.40
2022-12-15T06:58:49.759Z,27.30
2022-12-15T06:59:49.731Z,27.80
2022-12-15T07:00:49.710Z,30.00
2022-12-15T07:01:49.905Z,28.10
2022-12-15T07:02:50.094Z,27.80
2022-12-15T07:03:49.892Z,27.60
2022-12-15T07:04:49.565Z,28.50
2022-12-15T07:05:49.540Z,29.30
2022-12-15T07:06:49.513Z,28.70
2022-12-15T07:07:49.477Z,30.00
2022-12-15T07:08:49.675Z,28.40
2022-12-15T07:09:49.409Z,27.40
2022-12-15T07:10:49.379Z,27.20
2022-12-15T07:11:49.384Z,28.80
2022-12-15T07:12:49.360Z,26.80
2022-12-15T07:13:49.287Z,29.10
2022-12-15T07:14:53.430Z,28.10
2022-12-15T07:15:49.268Z,27.30
2022-12-15T07:16:49.197Z,28.60
2022-12-15T07:17:49.165Z,29.00
2022-12-15T07:18:49.133Z,29.40
2022-12-15T07:19:49.097Z,29.00
2022-12-15T07:20:49.865Z,28.50
2022-12-15T07:21:49.039Z,30.30
2022-12-15T07:22:49.006Z,30.20
2022-12-15T07:23:57.347Z,30.30
2022-12-15T07:24:48.939Z,29.90
2022-12-15T07:25:48.910Z,28.90
2022-12-15T07:26:49.151Z,27.20
2022-12-15T07:27:48.848Z,27.00
2022-12-15T07:28:48.929Z,27.70
2022-12-15T07:29:48.777Z,28.80
2022-12-15T07:30:48.748Z,31.50
2022-12-15T07:31:48.816Z,29.20
2022-12-15T07:32:50.168Z,33.60
2022-12-15T07:33:48.834Z,30.20
2022-12-15T07:34:48.633Z,29.80
2022-12-15T07:35:48.595Z,33.40
2022-12-15T07:36:52.118Z,31.70
2022-12-15T07:37:48.528Z,28.90
2022-12-15T07:38:50.761Z,29.70
2022-12-15T07:39:48.466Z,34.30
2022-12-15T07:40:48.430Z,34.70
2022-12-15T07:41:48.401Z,32.30
2022-12-15T07:42:48.375Z,31.10
2022-12-15T07:43:48.425Z,32.20
2022-12-15T07:44:49.953Z,30.20
2022-12-15T07:45:51.448Z,33.30
2022-12-15T07:46:48.244Z,30.00
2022-12-15T07:47:48.213Z,31.50
2022-12-15T07:48:50.333Z,27.80
2022-12-15T07:49:48.150Z,32.60
2022-12-15T07:50:48.118Z,30.90
2022-12-15T07:51:48.099Z,30.90
2022-12-15T07:52:48.054Z,28.90
2022-12-15T07:53:48.030Z,31.20
2022-12-15T07:54:47.993Z,31.40
2022-12-15T07:56:06.109Z,32.10
2022-12-15T07:56:50.151Z,31.50
2022-12-15T07:57:47.901Z,31.30
2022-12-15T07:58:47.873Z,28.70
2022-12-15T07:59:47.834Z,30.60
2022-12-15T08:00:49.063Z,28.60
2022-12-15T08:01:47.968Z,30.80
2022-12-15T08:02:47.997Z,31.60
2022-12-15T08:03:47.748Z,32.10
2022-12-15T08:04:48.142Z,31.30
2022-12-15T08:05:47.646Z,30.50
2022-12-15T08:06:47.613Z,30.20
2022-12-15T08:07:47.588Z,32.00
2022-12-15T08:08:50.719Z,30.90
2022-12-15T08:09:47.527Z,32.20
2022-12-15T08:10:47.483Z,31.70
2022-12-15T08:11:47.456Z,32.30
2022-12-15T08:12:47.428Z,30.70
2022-12-15T08:14:04.437Z,34.80
2022-12-15T08:14:50.230Z,29.80
2022-12-15T08:15:47.332Z,29.40
2022-12-15T08:16:47.466Z,30.70
2022-12-15T08:17:47.266Z,33.30
2022-12-15T08:18:47.233Z,29.40
2022-12-15T08:19:47.210Z,28.20
2022-12-15T08:20:50.359Z,31.90
2022-12-15T08:21:47.143Z,30.70
2022-12-15T08:22:47.110Z,29.90
2022-12-15T08:23:47.074Z,26.90
2022-12-15T08:24:47.042Z,30.50
2022-12-15T08:25:47.023Z,31.60
2022-12-15T08:26:49.896Z,35.50
2022-12-15T08:27:46.956Z,28.70
2022-12-15T08:28:46.911Z,30.90
2022-12-15T08:29:51.457Z,31.10
2022-12-15T08:30:46.853Z,32.30
2022-12-15T08:31:46.914Z,32.50
2022-12-15T08:32:51.737Z,39.60
2022-12-15T08:33:46.761Z,38.80
2022-12-15T08:34:46.734Z,39.10
2022-12-15T08:35:56.801Z,37.80
2022-12-15T08:36:46.671Z,33.40
2022-12-15T08:37:46.643Z,33.30
2022-12-15T08:38:46.603Z,31.40
2022-12-15T08:39:46.580Z,42.50
2022-12-15T08:40:46.541Z,39.70
2022-12-15T08:41:46.518Z,33.00
2022-12-15T08:42:46.478Z,52.40
2022-12-15T08:43:49.069Z,61.60
2022-12-15T08:44:46.419Z,38.50
2022-12-15T08:45:46.461Z,34.10
2022-12-15T08:46:46.352Z,68.20
2022-12-15T08:47:46.331Z,70.00
2022-12-15T08:48:46.312Z,56.90
2022-12-15T08:49:46.262Z,53.20
2022-12-15T08:50:46.226Z,43.70
2022-12-15T08:51:46.204Z,54.10
2022-12-15T08:53:06.578Z,87.30
2022-12-15T08:53:46.690Z,42.10
2022-12-15T08:54:46.103Z,74.70
2022-12-15T08:55:46.072Z,43.30
2022-12-15T08:56:46.040Z,31.40
2022-12-15T08:57:46.013Z,33.40
2022-12-15T08:58:45.980Z,30.10
2022-12-15T08:59:45.946Z,32.80
2022-12-15T09:00:45.965Z,31.30
2022-12-15T09:01:46.016Z,32.40
2022-12-15T09:02:45.937Z,33.40
2022-12-15T09:03:45.829Z,32.00
2022-12-15T09:04:45.946Z,32.10
2022-12-15T09:05:45.764Z,31.80
2022-12-15T09:06:50.359Z,33.90
2022-12-15T09:07:45.700Z,33.00
2022-12-15T09:08:48.542Z,34.60
2022-12-15T09:09:45.648Z,32.40
2022-12-15T09:10:45.605Z,33.60
2022-12-15T09:11:45.576Z,33.40
2022-12-15T09:12:45.536Z,34.90
2022-12-15T09:13:45.506Z,33.70
2022-12-15T09:14:45.475Z,31.80
2022-12-15T09:16:08.891Z,33.20
2022-12-15T09:16:45.566Z,33.00
2022-12-15T09:17:45.388Z,34.30
2022-12-15T09:18:45.350Z,31.50
2022-12-15T09:19:45.329Z,32.90
2022-12-15T09:20:45.412Z,33.80
2022-12-15T09:21:45.263Z,30.40
2022-12-15T09:22:45.224Z,31.80
2022-12-15T09:23:45.198Z,32.80
2022-12-15T09:24:45.164Z,33.40
2022-12-15T09:25:45.135Z,31.30
2022-12-15T09:26:45.096Z,31.80
2022-12-15T09:27:45.073Z,33.60
2022-12-15T09:28:45.042Z,36.30
2022-12-15T09:29:45.009Z,34.40
2022-12-15T09:30:45.012Z,35.10
2022-12-15T09:31:44.949Z,33.00
2022-12-15T09:32:44.914Z,33.70
2022-12-15T09:33:44.898Z,35.90
2022-12-15T09:34:44.855Z,35.10
2022-12-15T09:35:44.826Z,35.90
2022-12-15T09:36:44.809Z,33.60
2022-12-15T09:37:49.967Z,36.00
2022-12-15T09:38:44.729Z,33.90
2022-12-15T09:39:44.701Z,36.80
2022-12-15T09:40:44.665Z,32.80
2022-12-15T09:41:44.635Z,37.60
2022-12-15T09:42:44.973Z,37.10
2022-12-15T09:43:47.408Z,37.40
2022-12-15T09:44:44.548Z,37.10
2022-12-15T09:45:44.573Z,38.50
2022-12-15T09:46:44.474Z,40.20
2022-12-15T09:47:44.450Z,38.70
2022-12-15T09:48:44.415Z,35.00
2022-12-15T09:49:44.387Z,36.60
2022-12-15T09:50:44.361Z,42.10
2022-12-15T09:51:44.321Z,39.20
2022-12-15T09:52:44.324Z,40.90
2022-12-15T09:54:00.044Z,36.50
2022-12-15T09:54:44.328Z,39.00
2022-12-15T09:55:44.200Z,37.10
2022-12-15T09:56:44.164Z,38.10
2022-12-15T09:57:44.140Z,37.80
2022-12-15T09:58:44.108Z,35.60
2022-12-15T09:59:44.077Z,40.10
2022-12-15T10:00:45.752Z,34.50
2022-12-15T10:01:44.121Z,36.20
2022-12-15T10:02:44.045Z,35.70
2022-12-15T10:03:44.052Z,33.40
2022-12-15T10:04:43.920Z,35.10
2022-12-15T10:06:07.110Z,35.40
2022-12-15T10:06:43.855Z,39.20
2022-12-15T10:07:43.824Z,34.80
2022-12-15T10:08:43.818Z,36.10
2022-12-15T10:09:43.762Z,35.70
2022-12-15T10:10:43.737Z,39.60
2022-12-15T10:11:43.704Z,35.70
2022-12-15T10:12:54.817Z,36.40
2022-12-15T10:13:43.644Z,36.60
2022-12-15T10:14:43.606Z,35.60
2022-12-15T10:15:43.619Z,36.00
2022-12-15T10:16:43.547Z,38.00
2022-12-15T10:17:43.514Z,39.10
2022-12-15T10:18:43.480Z,38.50
2022-12-15T10:19:43.458Z,39.10
2022-12-15T10:20:43.417Z,37.20
2022-12-15T10:21:43.395Z,38.70
2022-12-15T10:22:43.356Z,38.80
2022-12-15T10:23:43.401Z,36.00
2022-12-15T10:25:11.950Z,38.90
2022-12-15T10:25:43.267Z,70.80
2022-12-15T10:26:43.229Z,40.90
2022-12-15T10:27:43.207Z,39.10
2022-12-15T10:28:43.169Z,38.20
2022-12-15T10:29:43.245Z,39.10
2022-12-15T10:30:43.164Z,37.40
2022-12-15T10:31:43.085Z,37.90
2022-12-15T10:32:43.210Z,44.20
2022-12-15T10:33:48.574Z,39.80
2022-12-15T10:34:43.036Z,36.30
2022-12-15T10:35:42.970Z,36.70
2022-12-15T10:36:42.922Z,41.90
2022-12-15T10:37:42.895Z,40.90
2022-12-15T10:38:42.863Z,39.60
2022-12-15T10:39:42.833Z,38.50
2022-12-15T10:40:42.827Z,42.10
2022-12-15T10:41:42.776Z,36.70
2022-12-15T10:42:42.737Z,42.10
2022-12-15T10:43:42.710Z,39.90
2022-12-15T10:44:42.677Z,41.00
2022-12-15T10:45:42.653Z,39.90
2022-12-15T10:46:42.724Z,36.60
2022-12-15T10:47:42.587Z,35.70
2022-12-15T10:48:42.545Z,36.90
2022-12-15T10:49:42.521Z,38.90
2022-12-15T10:50:42.490Z,41.80
2022-12-15T10:51:42.475Z,38.10
2022-12-15T10:52:42.425Z,39.40
2022-12-15T10:53:42.398Z,41.10
2022-12-15T10:54:42.376Z,41.90
2022-12-15T10:55:42.442Z,40.10
2022-12-15T10:56:42.337Z,45.80
2022-12-15T10:57:42.278Z,39.70
2022-12-15T10:58:42.245Z,37.10
2022-12-15T10:59:42.215Z,39.20
2022-12-15T11:00:42.174Z,40.80
2022-12-15T11:01:42.282Z,36.60
2022-12-15T11:02:42.377Z,38.50
2022-12-15T11:03:42.378Z,43.50
2022-12-15T11:04:42.060Z,38.60
2022-12-15T11:05:42.071Z,38.70
2022-12-15T11:06:41.995Z,43.70
2022-12-15T11:07:41.967Z,43.50
2022-12-15T11:08:41.933Z,44.90
2022-12-15T11:09:41.903Z,39.80
2022-12-15T11:10:41.870Z,39.60
2022-12-15T11:11:45.107Z,37.90
2022-12-15T11:12:41.831Z,36.90
2022-12-15T11:13:42.442Z,37.40
2022-12-15T11:14:41.753Z,38.00
2022-12-15T11:15:41.888Z,36.60
2022-12-15T11:16:41.689Z,38.00
2022-12-15T11:17:41.665Z,36.40
2022-12-15T11:18:41.623Z,39.40
2022-12-15T11:19:41.593Z,43.90
2022-12-15T11:20:41.567Z,37.00
2022-12-15T11:21:41.535Z,41.30
2022-12-15T11:22:41.506Z,38.70
2022-12-15T11:23:46.637Z,40.00
2022-12-15T11:24:41.444Z,37.20
2022-12-15T11:25:41.414Z,35.50
2022-12-15T11:26:41.383Z,41.30
2022-12-15T11:27:41.353Z,39.60
2022-12-15T11:28:41.341Z,41.30
2022-12-15T11:29:41.297Z,41.10
2022-12-15T11:30:41.259Z,35.60
2022-12-15T11:31:41.241Z,40.90
2022-12-15T11:32:41.200Z,39.10
2022-12-15T11:33:41.168Z,36.60
2022-12-15T11:34:41.138Z,36.80
2022-12-15T11:35:41.138Z,38.20
2022-12-15T11:36:41.078Z,37.90
2022-12-15T11:37:41.059Z,36.80
2022-12-15T11:38:41.064Z,34.90
2022-12-15T11:39:40.987Z,37.40
2022-12-15T11:40:40.958Z,38.70
2022-12-15T11:41:40.922Z,37.90
2022-12-15T11:42:40.891Z,36.90
2022-12-15T11:43:40.863Z,34.80
2022-12-15T11:44:40.858Z,35.90
2022-12-15T11:45:41.069Z,35.90
2022-12-15T11:46:40.778Z,38.00
2022-12-15T11:47:40.765Z,39.60
2022-12-15T11:48:40.718Z,36.60
2022-12-15T11:49:41.500Z,36.90
2022-12-15T11:50:40.654Z,35.90
2022-12-15T11:51:40.621Z,34.60
2022-12-15T11:52:40.592Z,36.80
2022-12-15T11:53:40.563Z,34.60
2022-12-15T11:54:40.538Z,33.70
2022-12-15T11:55:41.640Z,36.00
2022-12-15T11:56:40.469Z,35.10
2022-12-15T11:57:40.439Z,37.70
2022-12-15T11:58:40.413Z,34.00
2022-12-15T11:59:40.377Z,35.30
2022-12-15T12:00:40.365Z,36.90
2022-12-15T12:01:45.484Z,36.50
2022-12-15T12:02:40.406Z,34.40
2022-12-15T12:03:40.268Z,36.50
2022-12-15T12:04:40.227Z,37.20
2022-12-15T12:05:40.192Z,34.40
2022-12-15T12:06:40.168Z,33.50
2022-12-15T12:07:42.155Z,35.30
2022-12-15T12:08:40.104Z,32.50
2022-12-15T12:09:40.068Z,33.60
2022-12-15T12:10:40.122Z,32.60
2022-12-15T12:11:40.012Z,32.80
2022-12-15T12:12:39.982Z,32.20
2022-12-15T12:13:39.953Z,36.00
2022-12-15T12:14:39.925Z,34.10
2022-12-15T12:15:39.888Z,35.30
2022-12-15T12:16:39.896Z,33.10
2022-12-15T12:17:39.831Z,37.80
2022-12-15T12:18:39.904Z,35.20
2022-12-15T12:19:39.765Z,32.30
2022-12-15T12:20:39.737Z,37.70
2022-12-15T12:21:39.705Z,36.10
2022-12-15T12:22:39.681Z,32.20
2022-12-15T12:23:39.649Z,32.50
2022-12-15T12:24:39.617Z,33.90
2022-12-15T12:25:39.587Z,33.20
2022-12-15T12:26:39.559Z,34.30
2022-12-15T12:27:39.528Z,36.10
2022-12-15T12:28:39.498Z,31.70
2022-12-15T12:29:39.469Z,36.40
2022-12-15T12:30:39.447Z,35.30
2022-12-15T12:31:39.410Z,34.10
2022-12-15T12:32:39.404Z,33.80
2022-12-15T12:33:39.349Z,32.20
2022-12-15T12:34:39.342Z,37.50
2022-12-15T12:35:39.291Z,31.10
2022-12-15T12:36:39.263Z,33.50
2022-12-15T12:37:39.228Z,34.00
2022-12-15T12:38:39.208Z,34.60
2022-12-15T12:39:39.163Z,34.30
2022-12-15T12:40:39.134Z,34.90
2022-12-15T12:41:39.105Z,36.10
2022-12-15T12:42:39.080Z,33.60
2022-12-15T12:43:39.046Z,32.90
2022-12-15T12:44:39.019Z,36.90
2022-12-15T12:45:38.983Z,32.20
2022-12-15T12:46:38.955Z,32.60
2022-12-15T12:47:38.925Z,33.40
2022-12-15T12:48:38.917Z,36.20
2022-12-15T12:49:38.873Z,32.40
2022-12-15T12:50:38.837Z,35.10
2022-12-15T12:51:38.807Z,35.00